createdAt,value
2018-06-11T00:00:35.521Z,19.32
2018-06-11T00:03:10.720Z,19.23
2018-06-11T00:05:45.589Z,19.14
2018-06-11T00:08:20.738Z,19.03
2018-06-11T00:10:55.689Z,18.94
2018-06-11T00:13:30.153Z,18.90
2018-06-11T00:16:05.298Z,18.88
2018-06-11T00:18:39.904Z,18.88
2018-06-11T00:21:15.026Z,18.86
2018-06-11T00:23:49.497Z,18.84
2018-06-11T00:26:24.193Z,18.83
2018-06-11T00:28:58.429Z,18.85
2018-06-11T00:31:33.562Z,18.81
2018-06-11T00:34:08.180Z,18.81
2018-06-11T00:36:43.172Z,18.79
2018-06-11T00:39:18.457Z,18.75
2018-06-11T00:41:53.509Z,18.74
2018-06-11T00:44:28.957Z,18.79
2018-06-11T00:47:03.530Z,18.85
2018-06-11T00:49:38.149Z,18.90
2018-06-11T00:52:13.450Z,18.89
2018-06-11T00:54:48.623Z,18.91
2018-06-11T00:57:23.322Z,18.95
2018-06-11T00:59:58.153Z,18.99
2018-06-11T01:02:34.064Z,18.91
2018-06-11T01:05:09.688Z,18.84
2018-06-11T01:07:44.848Z,18.80
2018-06-11T01:10:19.334Z,18.79
2018-06-11T01:12:54.434Z,18.83
2018-06-11T01:15:29.170Z,18.85
2018-06-11T01:18:04.221Z,18.89
2018-06-11T01:20:39.466Z,18.83
2018-06-11T01:23:14.793Z,18.69
2018-06-11T01:25:49.514Z,18.59
2018-06-11T01:28:24.714Z,18.64
2018-06-11T01:31:00.600Z,18.73
2018-06-11T01:33:36.048Z,18.72
2018-06-11T01:36:11.565Z,18.72
2018-06-11T01:38:46.105Z,18.67
2018-06-11T01:41:20.858Z,18.70
2018-06-11T01:43:55.937Z,18.76
2018-06-11T01:46:31.021Z,18.75
2018-06-11T01:49:05.941Z,18.70
2018-06-11T01:51:41.320Z,18.62
2018-06-11T01:54:15.998Z,18.59
2018-06-11T01:56:51.393Z,18.54
2018-06-11T01:59:25.886Z,18.57
2018-06-11T02:02:00.282Z,18.66
2018-06-11T02:04:35.931Z,18.71
2018-06-11T02:07:10.884Z,18.70
2018-06-11T02:09:45.522Z,18.67
2018-06-11T02:12:21.504Z,18.59
2018-06-11T02:14:56.304Z,18.62
2018-06-11T02:17:31.074Z,18.71
2018-06-11T02:20:06.090Z,18.83
2018-06-11T02:22:41.116Z,18.96
2018-06-11T02:25:15.433Z,19.06
2018-06-11T02:27:50.448Z,19.16
2018-06-11T02:30:24.723Z,19.19
2018-06-11T02:32:59.046Z,19.21
2018-06-11T02:35:34.081Z,19.23
2018-06-11T02:38:08.291Z,19.21
2018-06-11T02:40:43.288Z,19.09
2018-06-11T02:43:18.492Z,18.98
2018-06-11T02:45:53.131Z,18.92
2018-06-11T02:48:28.397Z,18.86
2018-06-11T02:51:02.917Z,18.84
2018-06-11T02:53:37.898Z,18.81
2018-06-11T02:56:13.400Z,18.78
2018-06-11T02:58:48.055Z,18.74
2018-06-11T03:01:22.950Z,18.73
2018-06-11T03:03:57.816Z,18.62
2018-06-11T03:06:32.113Z,18.53
2018-06-11T03:09:07.590Z,18.43
2018-06-11T03:11:42.531Z,18.36
2018-06-11T03:14:17.444Z,18.24
2018-06-11T03:16:52.509Z,18.16
2018-06-11T03:19:27.419Z,18.12
2018-06-11T03:22:01.834Z,18.09
2018-06-11T03:24:36.796Z,18.06
2018-06-11T03:27:12.098Z,18.03
2018-06-11T03:29:47.273Z,17.98
2018-06-11T03:32:22.469Z,17.95
2018-06-11T03:34:57.554Z,17.88
2018-06-11T03:37:32.240Z,17.83
2018-06-11T03:40:07.341Z,17.82
2018-06-11T03:42:42.184Z,17.82
2018-06-11T03:45:17.390Z,17.76
2018-06-11T03:47:52.884Z,17.68
2018-06-11T03:50:28.457Z,17.63
2018-06-11T03:53:02.982Z,17.60
2018-06-11T03:55:37.913Z,17.58
2018-06-11T03:58:12.633Z,17.55
2018-06-11T04:00:47.772Z,17.43
2018-06-11T04:03:22.797Z,17.38
2018-06-11T04:05:58.033Z,17.28
2018-06-11T04:08:34.129Z,17.14
2018-06-11T04:11:08.731Z,17.07
2018-06-11T04:13:45.286Z,17.06
2018-06-11T04:16:21.343Z,17.07
2018-06-11T04:18:56.125Z,17.16
2018-06-11T04:21:30.789Z,17.24
2018-06-11T04:24:05.745Z,17.27
2018-06-11T04:26:40.886Z,17.29
2018-06-11T04:29:15.407Z,17.39
2018-06-11T04:31:50.714Z,17.42
2018-06-11T04:34:25.833Z,17.43
2018-06-11T04:37:00.613Z,17.40
2018-06-11T04:39:35.456Z,17.35
2018-06-11T04:42:10.907Z,17.32
2018-06-11T04:44:45.782Z,17.32
2018-06-11T04:47:20.780Z,17.35
2018-06-11T04:49:55.709Z,17.40
2018-06-11T04:52:30.941Z,17.44
2018-06-11T04:55:05.693Z,17.41
2018-06-11T04:57:40.685Z,17.40
2018-06-11T05:00:16.418Z,17.42
2018-06-11T05:02:50.894Z,17.47
2018-06-11T05:05:25.706Z,17.46
2018-06-11T05:08:00.540Z,17.42
2018-06-11T05:10:35.885Z,17.40
2018-06-11T05:13:10.722Z,17.42
2018-06-11T05:15:45.565Z,17.42
2018-06-11T05:18:20.506Z,17.38
2018-06-11T05:20:55.443Z,17.39
2018-06-11T05:23:30.462Z,17.46
2018-06-11T05:26:05.445Z,17.52
2018-06-11T05:28:40.797Z,17.56
2018-06-11T05:31:15.678Z,17.58
2018-06-11T05:33:51.043Z,17.61
2018-06-11T05:36:26.445Z,17.58
2018-06-11T05:39:01.369Z,17.53
2018-06-11T05:41:36.605Z,17.53
2018-06-11T05:44:11.365Z,17.52
2018-06-11T05:46:46.214Z,17.51
2018-06-11T05:49:21.218Z,17.48
2018-06-11T05:51:56.228Z,17.39
2018-06-11T05:54:30.782Z,17.38
2018-06-11T05:57:05.929Z,17.44
2018-06-11T05:59:41.001Z,17.52
2018-06-11T06:02:16.053Z,17.57
2018-06-11T06:04:51.253Z,17.57
2018-06-11T06:07:25.995Z,17.57
2018-06-11T06:10:00.963Z,17.59
2018-06-11T06:12:35.258Z,17.61
2018-06-11T06:15:09.878Z,17.60
2018-06-11T06:17:44.375Z,17.58
2018-06-11T06:20:18.938Z,17.58
2018-06-11T06:22:53.708Z,17.60
2018-06-11T06:25:28.637Z,17.63
2018-06-11T06:28:04.007Z,17.69
2018-06-11T06:30:39.552Z,17.72
2018-06-11T06:33:14.949Z,17.76
2018-06-11T06:35:49.710Z,17.84
2018-06-11T06:38:24.674Z,17.94
2018-06-11T06:40:59.817Z,18.02
2018-06-11T06:43:34.249Z,18.02
2018-06-11T06:46:08.465Z,18.06
2018-06-11T06:48:43.597Z,18.14
2018-06-11T06:51:17.797Z,18.20
2018-06-11T06:53:52.398Z,18.26
2018-06-11T06:56:26.842Z,18.29
2018-06-11T06:59:01.989Z,18.29
2018-06-11T07:01:36.509Z,18.34
2018-06-11T07:04:11.648Z,18.33
2018-06-11T07:06:46.960Z,18.35
2018-06-11T07:09:21.497Z,18.39
2018-06-11T07:11:56.354Z,18.57
2018-06-11T07:14:30.613Z,18.78
2018-06-11T07:17:05.528Z,18.99
2018-06-11T07:19:40.534Z,19.16
2018-06-11T07:22:15.865Z,19.26
2018-06-11T07:24:50.601Z,19.25
2018-06-11T07:27:25.941Z,19.26
2018-06-11T07:30:00.445Z,19.35
2018-06-11T07:32:35.043Z,19.48
2018-06-11T07:35:09.505Z,19.57
2018-06-11T07:37:44.746Z,19.74
2018-06-11T07:40:19.829Z,19.97
2018-06-11T07:42:54.629Z,20.18
2018-06-11T07:45:29.407Z,20.14
2018-06-11T07:48:04.377Z,20.29
2018-06-11T07:50:39.717Z,20.48
2018-06-11T07:53:14.265Z,20.68
2018-06-11T07:55:48.765Z,20.79
2018-06-11T07:58:24.008Z,20.67
2018-06-11T08:00:59.437Z,20.54
2018-06-11T08:03:33.973Z,20.44
2018-06-11T08:06:08.692Z,20.37
2018-06-11T08:08:43.804Z,20.20
2018-06-11T08:11:18.922Z,20.11
2018-06-11T08:13:53.615Z,20.06
2018-06-11T08:16:28.390Z,19.91
2018-06-11T08:19:03.162Z,19.95
2018-06-11T08:21:37.861Z,19.97
2018-06-11T08:24:12.025Z,20.06
2018-06-11T08:26:47.050Z,20.23
2018-06-11T08:29:21.951Z,20.42
2018-06-11T08:31:57.067Z,20.61
2018-06-11T08:34:32.501Z,20.68
2018-06-11T08:37:07.379Z,20.75
2018-06-11T08:39:43.010Z,20.71
2018-06-11T08:42:17.686Z,20.93
2018-06-11T08:44:52.005Z,21.31
2018-06-11T08:47:26.764Z,21.71
2018-06-11T08:50:01.435Z,22.03
2018-06-11T08:52:36.698Z,22.27
2018-06-11T08:55:11.861Z,22.46
2018-06-11T08:57:46.989Z,22.77
2018-06-11T09:00:21.910Z,23.00
2018-06-11T09:02:57.321Z,23.09
2018-06-11T09:05:32.434Z,23.11
2018-06-11T09:08:07.788Z,23.10
2018-06-11T09:10:42.344Z,23.03
2018-06-11T09:13:16.965Z,22.87
2018-06-11T09:15:52.429Z,22.58
2018-06-11T09:18:27.173Z,22.49
2018-06-11T09:21:01.923Z,22.55
2018-06-11T09:23:36.658Z,22.63
2018-06-11T09:26:11.859Z,22.79
2018-06-11T09:28:47.078Z,22.96
2018-06-11T09:31:21.517Z,22.75
2018-06-11T09:33:56.785Z,22.68
2018-06-11T09:36:31.422Z,22.99
2018-06-11T09:39:08.446Z,23.40
2018-06-11T09:41:42.668Z,23.86
2018-06-11T09:44:17.267Z,24.21
2018-06-11T09:46:52.500Z,24.37
2018-06-11T09:49:27.495Z,24.47
2018-06-11T09:52:02.261Z,24.66
2018-06-11T09:54:37.077Z,24.95
2018-06-11T09:57:11.613Z,25.22
2018-06-11T09:59:46.665Z,25.30
2018-06-11T10:02:22.924Z,25.34
2018-06-11T10:04:57.160Z,25.40
2018-06-11T10:07:31.839Z,25.52
2018-06-11T10:10:07.268Z,25.67
2018-06-11T10:12:41.867Z,25.89
2018-06-11T10:15:17.185Z,25.93
2018-06-11T10:17:52.546Z,25.84
2018-06-11T10:20:27.933Z,25.73
2018-06-11T10:23:02.605Z,25.87
2018-06-11T10:25:36.985Z,25.80
2018-06-11T10:28:11.669Z,25.83
2018-06-11T10:30:46.724Z,26.06
2018-06-11T10:33:21.790Z,26.28
2018-06-11T10:35:56.777Z,26.54
2018-06-11T10:38:31.731Z,26.74
2018-06-11T10:41:06.561Z,26.75
2018-06-11T10:43:41.594Z,26.61
2018-06-11T10:46:16.533Z,26.54
2018-06-11T10:48:51.989Z,26.44
2018-06-11T10:51:26.770Z,26.50
2018-06-11T10:54:01.348Z,26.70
2018-06-11T10:56:35.966Z,26.94
2018-06-11T10:59:10.956Z,27.23
2018-06-11T11:01:45.326Z,27.30
2018-06-11T11:04:20.193Z,26.90
2018-06-11T11:06:55.238Z,26.41
2018-06-11T11:09:30.201Z,26.37
2018-06-11T11:12:04.943Z,26.62
2018-06-11T11:14:40.034Z,26.75
2018-06-11T11:17:15.270Z,26.62
2018-06-11T11:19:49.934Z,26.62
2018-06-11T11:22:25.043Z,26.74
2018-06-11T11:25:00.260Z,26.89
2018-06-11T11:27:35.381Z,26.95
2018-06-11T11:30:10.454Z,26.92
2018-06-11T11:32:45.209Z,26.69
2018-06-11T11:35:20.202Z,26.46
2018-06-11T11:37:54.845Z,26.32
2018-06-11T11:40:30.299Z,26.51
2018-06-11T11:43:04.873Z,26.80
2018-06-11T11:45:39.609Z,26.87
2018-06-11T11:48:14.373Z,26.88
2018-06-11T11:50:49.564Z,26.85
2018-06-11T11:53:24.178Z,26.85
2018-06-11T11:55:58.697Z,26.89
2018-06-11T11:58:33.668Z,26.98
2018-06-11T12:01:08.369Z,27.00
2018-06-11T12:03:43.116Z,27.03
2018-06-11T12:06:18.053Z,26.94
2018-06-11T12:08:53.325Z,26.80
2018-06-11T12:11:27.770Z,26.72
2018-06-11T12:14:03.223Z,26.50
2018-06-11T12:16:38.432Z,26.32
2018-06-11T12:19:13.703Z,26.13
2018-06-11T12:21:48.735Z,26.03
2018-06-11T12:24:23.589Z,26.10
2018-06-11T12:26:58.886Z,26.40
2018-06-11T12:29:33.893Z,26.67
2018-06-11T12:32:08.929Z,26.96
2018-06-11T12:34:43.683Z,27.37
2018-06-11T12:37:18.077Z,27.77
2018-06-11T12:39:53.330Z,28.15
2018-06-11T12:42:28.481Z,28.30
2018-06-11T12:45:03.429Z,28.34
2018-06-11T12:47:39.013Z,28.27
2018-06-11T12:50:14.278Z,27.94
2018-06-11T12:52:48.989Z,27.91
2018-06-11T12:55:23.773Z,27.96
2018-06-11T12:57:58.714Z,28.10
2018-06-11T13:00:33.440Z,28.23
2018-06-11T13:03:08.065Z,28.19
2018-06-11T13:05:43.632Z,28.11
2018-06-11T13:08:18.096Z,28.04
2018-06-11T13:10:53.353Z,28.21
2018-06-11T13:13:28.743Z,28.15
2018-06-11T13:16:03.483Z,28.01
2018-06-11T13:18:38.154Z,28.07
2018-06-11T13:21:12.973Z,28.21
2018-06-11T13:23:48.049Z,28.30
2018-06-11T13:26:22.487Z,28.49
2018-06-11T13:28:57.741Z,28.63
2018-06-11T13:31:32.162Z,28.59
2018-06-11T13:34:07.201Z,28.40
2018-06-11T13:36:42.627Z,28.26
2018-06-11T13:39:17.781Z,28.38
2018-06-11T13:41:52.818Z,28.64
2018-06-11T13:44:27.658Z,28.90
2018-06-11T13:47:02.485Z,29.08
2018-06-11T13:49:36.702Z,29.15
2018-06-11T13:52:12.005Z,29.06
2018-06-11T13:54:46.317Z,29.01
2018-06-11T13:57:21.502Z,28.72
2018-06-11T13:59:57.085Z,28.41
2018-06-11T14:02:31.841Z,28.26
2018-06-11T14:05:06.965Z,28.18
2018-06-11T14:07:42.035Z,28.12
2018-06-11T14:10:16.990Z,28.19
2018-06-11T14:12:51.968Z,28.25
2018-06-11T14:15:27.145Z,28.32
2018-06-11T14:18:02.170Z,28.33
2018-06-11T14:20:37.242Z,28.26
2018-06-11T14:23:12.304Z,28.16
2018-06-11T14:25:47.286Z,28.16
2018-06-11T14:28:22.100Z,28.28
2018-06-11T14:30:56.670Z,28.44
2018-06-11T14:33:31.894Z,28.56
2018-06-11T14:36:06.987Z,28.62
2018-06-11T14:38:41.298Z,28.68
2018-06-11T14:43:57.855Z,28.66
2018-06-11T14:46:32.358Z,28.38
2018-06-11T14:49:07.729Z,28.31
2018-06-11T14:51:42.098Z,28.29
2018-06-11T14:54:16.874Z,28.28
2018-06-11T14:56:51.793Z,28.27
2018-06-11T14:59:26.665Z,28.27
2018-06-11T15:02:02.089Z,28.18
2018-06-11T15:04:36.673Z,28.09
2018-06-11T15:07:11.473Z,28.03
2018-06-11T15:09:46.172Z,28.13
2018-06-11T15:12:21.542Z,28.27
2018-06-11T15:14:55.818Z,28.41
2018-06-11T15:17:30.366Z,28.48
2018-06-11T15:20:05.553Z,28.50
2018-06-11T15:22:40.657Z,28.42
2018-06-11T15:25:15.601Z,28.42
2018-06-11T15:27:50.442Z,28.42
2018-06-11T15:30:25.475Z,28.30
2018-06-11T15:33:00.202Z,28.12
2018-06-11T15:35:35.099Z,28.03
2018-06-11T15:38:09.333Z,28.00
2018-06-11T15:40:44.070Z,27.94
2018-06-11T15:43:19.333Z,27.90
2018-06-11T15:45:53.791Z,27.89
2018-06-11T15:48:28.590Z,27.89
2018-06-11T15:51:02.889Z,27.86
2018-06-11T15:53:38.323Z,27.81
2018-06-11T15:56:13.450Z,27.78
2018-06-11T15:58:48.608Z,27.73
2018-06-11T16:01:23.206Z,27.63
2018-06-11T16:03:58.082Z,27.50
2018-06-11T16:06:33.061Z,27.40
2018-06-11T16:09:08.326Z,27.33
2018-06-11T16:11:43.075Z,27.24
2018-06-11T16:14:18.197Z,27.12
2018-06-11T16:16:53.226Z,26.97
2018-06-11T16:19:28.073Z,26.89
2018-06-11T16:22:02.593Z,26.88
2018-06-11T16:24:37.585Z,26.81
2018-06-11T16:27:12.546Z,26.81
2018-06-11T16:29:47.665Z,26.85
2018-06-11T16:32:22.697Z,26.75
2018-06-11T16:34:58.067Z,26.62
2018-06-11T16:37:32.491Z,26.48
2018-06-11T16:40:07.048Z,26.42
2018-06-11T16:42:41.561Z,26.38
2018-06-11T16:45:16.793Z,26.34
2018-06-11T16:47:51.737Z,26.29
2018-06-11T16:50:26.155Z,26.22
2018-06-11T16:53:01.079Z,26.06
2018-06-11T16:55:35.600Z,25.89
2018-06-11T16:58:10.856Z,25.81
2018-06-11T17:00:45.672Z,25.75
2018-06-11T17:03:20.650Z,25.77
2018-06-11T17:05:55.685Z,25.76
2018-06-11T17:08:29.960Z,25.76
2018-06-11T17:11:05.080Z,25.77
2018-06-11T17:13:39.528Z,25.78
2018-06-11T17:16:14.536Z,25.69
2018-06-11T17:18:49.177Z,25.61
2018-06-11T17:21:24.055Z,25.51
2018-06-11T17:23:58.291Z,25.37
2018-06-11T17:26:33.376Z,25.23
2018-06-11T17:29:07.697Z,25.08
2018-06-11T17:31:42.426Z,25.00
2018-06-11T17:34:17.857Z,24.87
2018-06-11T17:36:53.014Z,24.73
2018-06-11T17:39:28.034Z,24.58
2018-06-11T17:42:03.074Z,24.48
2018-06-11T17:44:38.104Z,24.41
2018-06-11T17:47:13.014Z,24.37
2018-06-11T17:49:47.510Z,24.30
2018-06-11T17:52:23.021Z,24.24
2018-06-11T17:54:57.418Z,24.16
2018-06-11T17:57:31.765Z,24.12
2018-06-11T18:00:06.800Z,24.06
2018-06-11T18:02:41.754Z,23.99
2018-06-11T18:05:16.478Z,23.86
2018-06-11T18:07:51.610Z,23.73
2018-06-11T18:10:26.837Z,23.64
2018-06-11T18:13:01.773Z,23.58
2018-06-11T18:15:36.873Z,23.55
2018-06-11T18:21:09.358Z,23.41
2018-06-11T18:23:44.205Z,23.39
2018-06-11T18:26:18.467Z,23.36
2018-06-11T18:28:53.656Z,23.34
2018-06-11T18:31:28.665Z,23.29
2018-06-11T18:34:03.893Z,23.21
2018-06-11T18:36:38.985Z,23.12
2018-06-11T18:39:14.358Z,22.99
2018-06-11T18:41:50.150Z,22.90
2018-06-11T18:44:25.071Z,22.83
2018-06-11T18:47:00.280Z,22.78
2018-06-11T18:49:35.121Z,22.70
2018-06-11T18:52:10.232Z,22.62
2018-06-11T18:54:45.508Z,22.56
2018-06-11T18:57:20.197Z,22.50
2018-06-11T18:59:55.255Z,22.45
2018-06-11T19:02:30.168Z,22.36
2018-06-11T19:05:05.056Z,22.27
2018-06-11T19:07:40.280Z,22.21
2018-06-11T19:10:15.237Z,22.13
2018-06-11T19:12:50.357Z,22.09
2018-06-11T19:15:25.579Z,22.06
2018-06-11T19:18:00.211Z,22.03
2018-06-11T19:20:35.312Z,21.97
2018-06-11T19:23:10.359Z,21.88
2018-06-11T19:25:45.072Z,21.76
2018-06-11T19:28:19.684Z,21.64
2018-06-11T19:30:54.084Z,21.59
2018-06-11T19:33:28.417Z,21.55
2018-06-11T19:36:02.825Z,21.50
2018-06-11T19:38:37.955Z,21.42
2018-06-11T19:41:13.048Z,21.36
2018-06-11T19:43:48.136Z,21.34
2018-06-11T19:46:23.390Z,21.30
2018-06-11T19:48:57.753Z,21.27
2018-06-11T19:51:33.032Z,21.19
2018-06-11T19:54:08.256Z,21.13
2018-06-11T19:56:43.198Z,21.07
2018-06-11T19:59:18.040Z,21.00
2018-06-11T20:01:52.256Z,20.95
2018-06-11T20:04:26.687Z,20.89
2018-06-11T20:07:01.127Z,20.81
2018-06-11T20:09:36.009Z,20.65
2018-06-11T20:12:11.389Z,20.42
2018-06-11T20:14:45.981Z,20.22
2018-06-11T20:17:20.872Z,20.10
2018-06-11T20:19:55.404Z,20.06
2018-06-11T20:22:29.947Z,19.99
2018-06-11T20:25:05.377Z,19.88
2018-06-11T20:27:40.398Z,19.77
2018-06-11T20:30:14.884Z,19.67
2018-06-11T20:32:50.393Z,19.59
2018-06-11T20:35:24.806Z,19.46
2018-06-11T20:37:59.908Z,19.40
2018-06-11T20:40:34.753Z,19.36
2018-06-11T20:43:09.535Z,19.31
2018-06-11T20:45:44.213Z,19.18
2018-06-11T20:48:19.488Z,19.03
2018-06-11T20:50:54.503Z,18.91
2018-06-11T20:53:29.608Z,18.82
2018-06-11T20:56:05.025Z,18.77
2018-06-11T20:58:40.540Z,18.69
2018-06-11T21:01:16.627Z,18.65
2018-06-11T21:03:51.215Z,18.61
2018-06-11T21:06:25.865Z,18.60
2018-06-11T21:09:01.331Z,18.57
2018-06-11T21:11:36.167Z,18.56
2018-06-11T21:14:11.504Z,18.53
2018-06-11T21:16:46.909Z,18.47
2018-06-11T21:19:21.544Z,18.42
2018-06-11T21:21:55.999Z,18.37
2018-06-11T21:24:30.681Z,18.25
2018-06-11T21:27:05.876Z,18.16
2018-06-11T21:29:41.421Z,18.11
2018-06-11T21:32:18.047Z,18.00
2018-06-11T21:34:53.020Z,17.88
2018-06-11T21:37:28.425Z,17.77
2018-06-11T21:40:03.481Z,17.67
2018-06-11T21:42:38.269Z,17.60
2018-06-11T21:45:13.277Z,17.58
2018-06-11T21:47:47.642Z,17.54
2018-06-11T21:50:22.149Z,17.45
2018-06-11T21:52:56.796Z,17.36
2018-06-11T21:55:31.128Z,17.30
2018-06-11T21:58:06.252Z,17.24
2018-06-11T22:00:40.967Z,17.24
2018-06-11T22:03:16.558Z,17.20
2018-06-11T22:05:51.244Z,17.13
2018-06-11T22:08:25.504Z,17.08
2018-06-11T22:11:00.405Z,17.04
2018-06-11T22:13:35.269Z,16.99
2018-06-11T22:16:10.462Z,16.93
2018-06-11T22:18:44.865Z,16.87
2018-06-11T22:21:19.304Z,16.80
2018-06-11T22:23:53.633Z,16.77
2018-06-11T22:26:27.992Z,16.78
2018-06-11T22:29:02.597Z,16.75
2018-06-11T22:31:37.113Z,16.70
2018-06-11T22:34:11.669Z,16.63
2018-06-11T22:36:46.443Z,16.57
2018-06-11T22:39:21.000Z,16.49
2018-06-11T22:41:55.697Z,16.41
2018-06-11T22:44:30.936Z,16.31
2018-06-11T22:47:06.161Z,16.25
2018-06-11T22:49:41.135Z,16.22
2018-06-11T22:52:15.800Z,16.20
2018-06-11T22:54:50.593Z,16.15
2018-06-11T22:57:25.484Z,16.12
2018-06-11T22:59:59.836Z,16.09
2018-06-11T23:02:34.785Z,16.09
2018-06-11T23:05:09.060Z,16.11
2018-06-11T23:07:43.344Z,16.06
2018-06-11T23:10:18.496Z,16.06
2018-06-11T23:12:53.053Z,16.02
2018-06-11T23:15:27.300Z,15.97
2018-06-11T23:18:02.496Z,15.93
2018-06-11T23:20:37.684Z,15.91
2018-06-11T23:23:12.717Z,15.91
2018-06-11T23:25:47.637Z,15.90
2018-06-11T23:28:22.893Z,15.88
2018-06-11T23:30:57.145Z,15.85
2018-06-11T23:33:31.541Z,15.82
2018-06-11T23:36:07.081Z,15.81
2018-06-11T23:38:41.922Z,15.77
2018-06-11T23:41:16.845Z,15.72
2018-06-11T23:43:51.712Z,15.67
2018-06-11T23:46:26.197Z,15.62
2018-06-11T23:49:00.701Z,15.58
2018-06-11T23:51:35.713Z,15.53
2018-06-11T23:54:10.177Z,15.50
2018-06-11T23:56:45.046Z,15.49
2018-06-11T23:59:19.236Z,15.47
